Time;durP1;ratioP1;P1;durP2;ratioP2;P2;SDS_P1;SDS_P2;PMS_P1;PMS_P2;Temp;Humidity;BMP_temperature;BMP_pressure;BME280_temperature;BME280_humidity;BME280_pressure;Samples;Min_cycle;Max_cycle;Signal;HPM_P1;HPM_P2
2022/11/02 00:01:43;;;;;;;24.27;21.87;;;7.20;99.90;;;;;;5110496;28;20190;-78
2022/11/02 00:04:09;;;;;;;43.40;13.43;;;7.20;99.90;;;;;;5110689;28;20187;-78
2022/11/02 00:06:35;;;;;;;107.47;29.93;;;7.10;99.90;;;;;;5129873;27;20523;-78
2022/11/02 00:09:01;;;;;;;45.80;37.13;;;7.20;99.90;;;;;;5131996;27;20185;-78
2022/11/02 00:11:27;;;;;;;44.60;30.23;;;7.20;99.90;;;;;;5132384;27;20184;-78
2022/11/02 00:13:52;;;;;;;52.00;21.23;;;7.20;99.90;;;;;;5131864;27;20307;-77
2022/11/02 00:16:19;;;;;;;29.70;14.83;;;7.20;99.90;;;;;;5138828;28;20591;-79
2022/11/02 00:18:49;;;;;;;30.37;14.00;;;7.20;99.90;;;;;;5141256;27;20564;-79
2022/11/02 00:21:17;;;;;;;49.50;28.77;;;7.20;99.90;;;;;;5120785;28;20184;-78
2022/11/02 00:23:44;;;;;;;58.43;44.13;;;7.30;99.90;;;;;;5117119;28;20208;-78
2022/11/02 00:26:10;;;;;;;57.27;52.30;;;7.20;99.90;;;;;;5120973;28;20184;-77
2022/11/02 00:28:36;;;;;;;54.80;50.30;;;7.20;99.90;;;;;;5111079;28;20234;-78
2022/11/02 00:31:02;;;;;;;58.53;52.50;;;7.20;99.90;;;;;;5110382;28;20180;-78
2022/11/02 00:33:28;;;;;;;46.97;42.43;;;7.20;99.90;;;;;;5113832;28;20211;-78
2022/11/02 00:35:54;;;;;;;31.77;26.40;;;7.30;99.90;;;;;;5114468;28;20240;-78
2022/11/02 00:38:20;;;;;;;31.70;28.37;;;7.30;99.90;;;;;;5131565;28;20303;-78
2022/11/02 00:40:46;;;;;;;40.07;37.03;;;7.30;99.90;;;;;;5132153;28;20179;-78
2022/11/02 00:43:12;;;;;;;41.67;38.70;;;7.20;99.90;;;;;;5131864;28;20222;-78
2022/11/02 00:45:37;;;;;;;39.93;36.63;;;7.20;99.90;;;;;;5130832;28;20191;-78
2022/11/02 00:48:04;;;;;;;54.60;42.17;;;7.20;99.90;;;;;;5130465;28;20184;-78
2022/11/02 00:50:30;;;;;;;43.60;32.67;;;7.20;99.90;;;;;;5125057;28;20275;-78
2022/11/02 00:52:56;;;;;;;35.63;26.57;;;7.20;99.90;;;;;;5109968;28;20271;-77
2022/11/02 00:55:22;;;;;;;36.83;33.53;;;7.20;99.90;;;;;;5111148;28;20650;-78
2022/11/02 00:57:48;;;;;;;29.80;27.30;;;7.30;99.90;;;;;;5107756;28;20251;-78
2022/11/02 01:00:15;;;;;;;29.70;27.37;;;7.30;99.90;;;;;;5106771;28;20542;-77
2022/11/02 01:02:41;;;;;;;36.10;32.77;;;7.20;99.90;;;;;;5118505;28;20212;-78
2022/11/02 01:05:09;;;;;;;28.53;26.43;;;7.20;99.90;;;;;;5119492;28;20199;-78
2022/11/02 01:07:36;;;;;;;26.07;23.73;;;7.20;99.90;;;;;;5129594;28;20179;-78
2022/11/02 01:10:04;;;;;;;28.77;25.60;;;7.10;99.90;;;;;;5131564;27;20195;-78
2022/11/02 01:12:29;;;;;;;21.50;20.20;;;7.10;99.90;;;;;;5135201;27;20245;-79
2022/11/02 01:14:55;;;;;;;19.50;17.67;;;7.10;99.90;;;;;;5135507;27;20207;-78
2022/11/02 01:17:21;;;;;;;42.37;17.17;;;7.10;99.90;;;;;;5133768;27;20291;-78
2022/11/02 01:19:48;;;;;;;32.30;17.93;;;7.00;99.90;;;;;;5126284;27;20621;-78
2022/11/02 01:22:14;;;;;;;26.07;21.80;;;7.00;99.90;;;;;;5113302;28;20201;-78
2022/11/02 01:24:40;;;;;;;27.53;22.60;;;7.00;99.90;;;;;;5116678;28;20698;-79
2022/11/02 01:27:06;;;;;;;27.27;24.90;;;7.00;99.90;;;;;;5138243;28;20677;-78
2022/11/02 01:29:34;;;;;;;36.23;33.43;;;7.10;99.90;;;;;;5114957;28;20276;-77
2022/11/02 01:32:03;;;;;;;38.70;35.23;;;7.10;99.90;;;;;;5124902;28;20203;-79
2022/11/02 01:34:29;;;;;;;31.77;28.93;;;7.10;99.90;;;;;;5131030;27;20187;-77
2022/11/02 01:36:54;;;;;;;27.20;13.30;;;7.10;99.90;;;;;;5134737;27;20199;-77
2022/11/02 01:39:20;;;;;;;16.87;15.33;;;7.10;99.90;;;;;;5134833;27;20708;-79
2022/11/02 01:41:51;;;;;;;22.77;12.90;;;7.10;99.90;;;;;;5134810;27;20282;-77
2022/11/02 01:44:29;;;;;;;29.43;12.60;;;7.10;99.90;;;;;;5138139;27;20175;-78
2022/11/02 01:47:00;;;;;;;19.60;12.63;;;7.10;99.90;;;;;;5134871;27;20190;-78
2022/11/02 01:49:27;;;;;;;20.07;14.27;;;7.10;99.90;;;;;;5126377;27;20184;-79
2022/11/02 01:51:58;;;;;;;26.37;16.97;;;7.10;99.90;;;;;;5112690;28;20208;-78
2022/11/02 01:54:28;;;;;;;15.33;14.00;;;7.00;99.90;;;;;;5114309;28;20269;-78
2022/11/02 01:57:02;;;;;;;29.07;13.63;;;7.00;99.90;;;;;;5113667;28;20238;-77
2022/11/02 01:59:35;;;;;;;17.37;13.03;;;7.00;99.90;;;;;;5112794;28;20207;-78
2022/11/02 02:02:06;;;;;;;23.23;11.67;;;7.00;99.90;;;;;;5113806;28;20680;-77
2022/11/02 02:04:33;;;;;;;27.07;15.17;;;7.00;99.90;;;;;;5126909;27;20176;-77
2022/11/02 02:07:00;;;;;;;25.53;13.27;;;7.00;99.90;;;;;;5113506;27;20177;-78
2022/11/02 02:09:27;;;;;;;25.50;14.47;;;6.90;99.90;;;;;;5113782;28;20225;-77
2022/11/02 02:11:55;;;;;;;20.30;13.07;;;6.80;99.90;;;;;;5112468;28;20200;-78
2022/11/02 02:14:21;;;;;;;32.23;19.83;;;6.80;99.90;;;;;;5112663;28;20187;-77
2022/11/02 02:16:53;;;;;;;38.40;35.80;;;6.70;99.90;;;;;;5113246;28;20192;-79
2022/11/02 02:19:33;;;;;;;20.50;16.37;;;6.70;99.90;;;;;;5132373;27;20677;-78
2022/11/02 02:22:08;;;;;;;13.63;12.60;;;6.60;99.90;;;;;;5134263;27;20294;-78
2022/11/02 02:24:55;;;;;;;13.30;10.07;;;6.60;99.90;;;;;;5133930;27;20211;-79
2022/11/02 02:27:30;;;;;;;13.73;12.53;;;6.60;99.90;;;;;;5102727;27;20231;-79
2022/11/02 02:30:08;;;;;;;12.70;11.70;;;6.50;99.90;;;;;;5131940;27;20629;-77
2022/11/02 02:32:47;;;;;;;16.10;15.00;;;6.50;99.90;;;;;;5146449;27;20207;-78
2022/11/02 02:35:42;;;;;;;14.43;13.00;;;6.40;99.90;;;;;;5144161;27;20191;-78
2022/11/02 02:38:21;;;;;;;12.80;12.07;;;6.30;99.90;;;;;;5122886;27;20179;-78
2022/11/02 02:40:55;;;;;;;14.70;13.70;;;6.30;99.90;;;;;;5147126;27;20182;-77
2022/11/02 02:43:29;;;;;;;14.47;13.60;;;6.30;99.90;;;;;;5114003;27;20246;-78
2022/11/02 02:46:00;;;;;;;13.77;12.97;;;6.30;99.90;;;;;;5112965;28;20264;-78
2022/11/02 02:48:26;;;;;;;13.00;12.10;;;6.20;99.90;;;;;;5112631;28;20303;-78
2022/11/02 02:51:09;;;;;;;15.93;14.63;;;6.20;99.90;;;;;;5112937;28;20187;-77
2022/11/02 02:53:50;;;;;;;11.77;10.97;;;6.20;99.90;;;;;;5111615;28;20588;-77
2022/11/02 02:56:20;;;;;;;12.30;11.03;;;6.20;99.90;;;;;;5108784;27;20295;-77
2022/11/02 02:59:19;;;;;;;12.37;11.33;;;6.20;99.90;;;;;;5102624;28;20192;-77
2022/11/02 03:01:46;;;;;;;13.00;7.80;;;6.20;99.90;;;;;;5096389;28;20208;-77
2022/11/02 03:04:12;;;;;;;11.53;10.73;;;6.20;99.90;;;;;;5112078;28;20184;-77
2022/11/02 03:06:41;;;;;;;10.07;8.73;;;6.20;99.90;;;;;;5113586;28;20211;-79
2022/11/02 03:09:27;;;;;;;9.37;8.63;;;6.20;99.90;;;;;;5116939;28;20237;-78
2022/11/02 03:11:59;;;;;;;12.93;12.03;;;6.20;99.90;;;;;;5128063;27;20195;-78
2022/11/02 03:14:45;;;;;;;14.03;12.83;;;6.20;99.90;;;;;;5132794;27;20183;-78
2022/11/02 03:17:17;;;;;;;11.23;10.23;;;6.20;99.90;;;;;;5124232;27;20188;-78
2022/11/02 03:19:59;;;;;;;13.93;13.03;;;6.20;99.90;;;;;;5112797;28;20184;-78
2022/11/02 03:22:44;;;;;;;14.37;13.43;;;6.20;99.90;;;;;;5110809;28;20222;-78
2022/11/02 03:25:10;;;;;;;12.83;11.83;;;6.10;99.90;;;;;;5117055;27;20171;-78
2022/11/02 03:28:15;;;;;;;17.20;16.10;;;6.10;99.90;;;;;;5129378;27;20575;-77
2022/11/02 03:31:13;;;;;;;13.07;12.17;;;6.10;99.90;;;;;;5130850;27;20190;-78
2022/11/02 03:33:57;;;;;;;9.90;9.30;;;6.00;99.90;;;;;;5100006;27;20204;-78
2022/11/02 03:36:32;;;;;;;9.43;8.73;;;6.00;99.90;;;;;;5132741;27;20175;-78
2022/11/02 03:39:02;;;;;;;13.13;12.33;;;6.00;99.90;;;;;;5141604;27;20198;-79
2022/11/02 03:41:30;;;;;;;12.43;11.47;;;6.10;99.90;;;;;;5130417;27;20188;-76
2022/11/02 03:44:05;;;;;;;13.57;12.77;;;6.10;99.90;;;;;;5110780;28;20187;-77
2022/11/02 03:46:35;;;;;;;12.57;11.60;;;6.10;99.90;;;;;;5119587;28;20172;-76
2022/11/02 03:49:04;;;;;;;13.63;12.73;;;6.10;99.90;;;;;;5117541;28;20176;-76
2022/11/02 03:51:33;;;;;;;9.60;8.70;;;6.10;99.90;;;;;;5128482;27;20518;-76
2022/11/02 03:54:07;;;;;;;10.57;9.80;;;6.10;99.90;;;;;;5111775;28;20212;-76
2022/11/02 03:56:41;;;;;;;27.20;25.80;;;6.10;99.90;;;;;;5111929;28;20180;-77
2022/11/02 03:59:07;;;;;;;42.07;39.87;;;6.00;99.90;;;;;;5112267;28;20168;-74
2022/11/02 04:01:42;;;;;;;49.33;46.77;;;6.10;99.90;;;;;;5128834;27;20178;-77
2022/11/02 04:04:10;;;;;;;27.50;25.97;;;6.10;99.90;;;;;;5113732;28;20557;-76
2022/11/02 04:06:36;;;;;;;12.83;12.13;;;6.10;99.90;;;;;;5124944;27;20613;-76
2022/11/02 04:09:03;;;;;;;14.60;13.60;;;6.10;99.90;;;;;;5111179;28;20216;-76
2022/11/02 04:19:44;;;;;;;29.60;27.73;;;6.20;99.90;;;;;;5115872;28;20207;-75
2022/11/02 04:27:38;;;;;;;43.03;40.80;;;6.10;99.90;;;;;;5127869;28;20223;-74
2022/11/02 04:30:04;;;;;;;34.20;32.40;;;6.10;99.90;;;;;;5111270;28;20172;-76
2022/11/02 04:35:23;;;;;;;62.93;59.77;;;6.10;99.90;;;;;;5131699;28;20742;-77
2022/11/02 04:40:33;;;;;;;73.60;69.93;;;6.20;99.90;;;;;;5139902;28;20184;-76
2022/11/02 04:42:59;;;;;;;74.17;70.47;;;6.20;99.90;;;;;;5131791;28;20200;-77
2022/11/02 04:45:24;;;;;;;62.43;59.20;;;6.10;99.90;;;;;;5138074;27;20180;-78
2022/11/02 04:47:50;;;;;;;50.03;47.37;;;6.20;99.90;;;;;;5157898;27;20227;-77
2022/11/02 04:50:16;;;;;;;45.33;42.37;;;6.10;99.90;;;;;;5142248;27;20187;-77
2022/11/02 04:52:41;;;;;;;38.77;36.47;;;6.20;99.90;;;;;;5149947;22;20216;-75
2022/11/02 04:55:08;;;;;;;45.80;43.43;;;6.10;99.90;;;;;;5114969;28;20222;-78
2022/11/02 04:57:34;;;;;;;29.77;28.17;;;6.10;99.90;;;;;;5114686;28;20187;-76
2022/11/02 05:00:00;;;;;;;16.23;15.33;;;6.10;99.90;;;;;;5116465;28;20275;-77
2022/11/02 05:02:26;;;;;;;14.60;13.70;;;6.00;99.90;;;;;;5114939;28;20204;-76
2022/11/02 05:04:51;;;;;;;10.00;9.40;;;6.00;99.90;;;;;;5116149;28;20192;-75
2022/11/02 05:07:17;;;;;;;13.53;12.73;;;6.00;99.90;;;;;;5111638;28;20220;-76
2022/11/02 05:09:43;;;;;;;36.17;34.27;;;5.90;99.90;;;;;;5096102;28;20841;-77
2022/11/02 05:12:09;;;;;;;51.27;48.53;;;5.90;99.90;;;;;;5099244;28;20212;-77
2022/11/02 05:14:35;;;;;;;10.67;7.70;;;5.80;99.90;;;;;;5098220;28;20212;-79
2022/11/02 05:17:01;;;;;;;7.07;6.57;;;5.90;99.90;;;;;;5126378;28;20552;-78
2022/11/02 05:19:26;;;;;;;6.63;6.03;;;5.80;99.90;;;;;;5125522;28;20180;-76
2022/11/02 05:21:52;;;;;;;7.77;7.27;;;5.80;99.90;;;;;;5126563;28;20183;-75
2022/11/02 05:24:18;;;;;;;53.90;50.40;;;5.80;99.90;;;;;;5123511;28;20184;-77
2022/11/02 05:26:44;;;;;;;43.87;41.67;;;5.80;99.90;;;;;;5115700;28;20210;-78
2022/11/02 05:29:09;;;;;;;27.53;26.20;;;5.80;99.90;;;;;;5102562;28;20180;-77
2022/11/02 05:31:35;;;;;;;15.60;14.50;;;5.70;99.90;;;;;;5093458;28;20185;-77
2022/11/02 05:34:01;;;;;;;10.07;9.47;;;5.70;99.90;;;;;;5093426;28;20201;-77
2022/11/02 05:36:27;;;;;;;28.33;26.83;;;5.70;99.90;;;;;;5093279;28;20169;-76
2022/11/02 05:38:53;;;;;;;9.10;7.57;;;5.60;99.90;;;;;;5093913;28;20590;-77
2022/11/02 05:41:19;;;;;;;7.90;7.40;;;5.60;99.90;;;;;;5093145;28;20653;-76
2022/11/02 05:43:45;;;;;;;9.47;8.83;;;5.60;99.90;;;;;;5093263;28;20211;-76
2022/11/02 05:46:13;;;;;;;10.93;10.13;;;5.60;99.90;;;;;;5093891;28;20271;-78
2022/11/02 05:48:40;;;;;;;11.70;10.70;;;5.60;99.90;;;;;;5093982;28;20266;-76
2022/11/02 05:51:06;;;;;;;12.93;12.03;;;5.50;99.90;;;;;;5097500;28;20168;-77
2022/11/02 05:53:36;;;;;;;12.67;11.77;;;5.50;99.90;;;;;;5092994;28;20629;-77
2022/11/02 05:56:04;;;;;;;14.90;13.97;;;5.50;99.90;;;;;;5093334;28;20195;-78
2022/11/02 05:58:31;;;;;;;19.97;18.87;;;5.50;99.90;;;;;;5092526;28;20211;-76
2022/11/02 06:01:03;;;;;;;20.30;18.80;;;5.60;99.90;;;;;;5094893;28;20204;-76
2022/11/02 06:03:30;;;;;;;18.53;17.33;;;5.60;99.90;;;;;;5096601;28;20614;-77
2022/11/02 06:06:00;;;;;;;17.73;16.67;;;5.60;99.90;;;;;;5111717;28;20271;-78
2022/11/02 06:08:26;;;;;;;24.50;22.90;;;5.70;99.90;;;;;;5112757;28;20233;-78
2022/11/02 06:10:53;;;;;;;36.17;34.03;;;5.70;99.90;;;;;;5097538;28;20518;-77
2022/11/02 06:13:19;;;;;;;25.23;23.63;;;5.80;99.90;;;;;;5093738;28;20707;-77
2022/11/02 06:15:44;;;;;;;17.00;15.70;;;5.80;99.90;;;;;;5092174;28;20707;-76
2022/11/02 06:18:10;;;;;;;16.97;15.70;;;5.80;99.90;;;;;;5092294;28;20211;-77
2022/11/02 06:20:36;;;;;;;33.57;31.40;;;5.80;99.90;;;;;;5092581;28;20184;-76
2022/11/02 06:23:02;;;;;;;53.43;50.10;;;5.80;99.90;;;;;;5093767;28;20342;-77
2022/11/02 06:25:27;;;;;;;40.70;38.00;;;5.90;99.90;;;;;;5092553;28;20199;-78
2022/11/02 06:27:55;;;;;;;20.37;18.80;;;5.90;99.90;;;;;;5093783;28;20212;-77
2022/11/02 06:30:22;;;;;;;32.83;30.40;;;5.90;99.90;;;;;;5102412;28;20177;-76
2022/11/02 06:32:50;;;;;;;40.40;37.67;;;6.00;99.90;;;;;;5104162;28;20566;-76
2022/11/02 06:35:17;;;;;;;61.97;58.63;;;6.10;99.90;;;;;;5092196;28;20636;-77
2022/11/02 06:37:46;;;;;;;55.83;52.83;;;6.20;99.90;;;;;;5091626;28;20192;-77
2022/11/02 06:40:13;;;;;;;73.23;69.27;;;6.30;99.90;;;;;;5092084;28;20188;-77
2022/11/02 06:42:39;;;;;;;23.43;21.83;;;6.40;99.90;;;;;;5092066;28;20212;-76
2022/11/02 06:45:06;;;;;;;14.27;13.07;;;6.50;99.90;;;;;;5093881;28;20203;-76
2022/11/02 06:47:36;;;;;;;15.33;14.20;;;6.50;99.90;;;;;;5101206;28;20195;-76
2022/11/02 06:50:04;;;;;;;18.73;17.33;;;6.70;99.90;;;;;;5099942;28;20181;-77
2022/11/02 06:52:29;;;;;;;14.57;13.00;;;6.80;99.90;;;;;;5097723;28;20307;-77
2022/11/02 06:54:55;;;;;;;29.87;27.93;;;6.90;99.90;;;;;;5093870;28;20212;-77
2022/11/02 06:57:21;;;;;;;24.23;22.50;;;7.00;99.90;;;;;;5093454;28;20234;-75
2022/11/02 06:59:47;;;;;;;48.57;45.57;;;7.00;99.90;;;;;;5092869;28;20188;-75
2022/11/02 07:02:13;;;;;;;35.07;32.63;;;7.10;99.90;;;;;;5091246;28;20197;-75
2022/11/02 07:04:39;;;;;;;30.70;28.67;;;7.20;99.90;;;;;;5099469;28;20908;-77
2022/11/02 07:07:04;;;;;;;32.20;29.83;;;7.40;99.90;;;;;;5114167;28;20311;-78
2022/11/02 07:09:31;;;;;;;26.87;24.60;;;7.50;99.90;;;;;;5112151;28;20183;-78
2022/11/02 07:11:56;;;;;;;11.20;9.10;;;7.60;99.90;;;;;;5113639;28;20184;-78
2022/11/02 07:14:22;;;;;;;11.63;10.70;;;7.70;99.90;;;;;;5112934;28;20793;-73
2022/11/02 07:16:48;;;;;;;12.83;11.70;;;7.80;99.90;;;;;;5111792;28;20352;-73
2022/11/02 07:19:14;;;;;;;13.40;12.33;;;7.90;99.90;;;;;;5111127;28;20733;-74
2022/11/02 07:21:39;;;;;;;44.73;42.17;;;8.10;99.90;;;;;;5112097;28;20176;-73
2022/11/02 07:24:05;;;;;;;10.23;9.37;;;8.10;99.90;;;;;;5110873;28;20196;-73
2022/11/02 07:26:32;;;;;;;25.40;23.50;;;8.20;99.90;;;;;;5110989;28;20173;-73
2022/11/02 07:28:57;;;;;;;49.27;46.47;;;8.20;99.90;;;;;;5111827;28;20520;-72
2022/11/02 07:31:23;;;;;;;16.17;14.93;;;8.30;99.90;;;;;;5111876;28;20267;-73
2022/11/02 07:33:49;;;;;;;25.33;23.77;;;8.30;99.90;;;;;;5110733;28;20207;-73
2022/11/02 07:36:15;;;;;;;89.50;84.87;;;8.40;99.90;;;;;;5112195;28;20185;-73
2022/11/02 07:38:41;;;;;;;68.93;65.23;;;8.50;99.90;;;;;;5111387;28;20266;-72
2022/11/02 07:41:07;;;;;;;33.40;30.87;;;8.60;99.90;;;;;;5112173;28;20177;-74
2022/11/02 07:43:32;;;;;;;25.60;23.80;;;8.80;99.90;;;;;;5111568;28;20197;-74
2022/11/02 07:46:01;;;;;;;20.87;19.47;;;9.00;99.90;;;;;;5111739;28;20549;-73
2022/11/02 07:48:26;;;;;;;27.57;26.00;;;9.20;99.90;;;;;;5111411;28;20183;-73
2022/11/02 07:50:52;;;;;;;24.23;22.70;;;9.40;99.90;;;;;;5111932;28;20180;-74
2022/11/02 07:53:18;;;;;;;14.53;13.33;;;9.60;99.90;;;;;;5111006;28;20208;-74
2022/11/02 07:55:44;;;;;;;13.03;12.13;;;9.80;99.90;;;;;;5111983;28;20190;-74
2022/11/02 07:58:13;;;;;;;16.70;15.67;;;10.00;99.90;;;;;;5111186;28;20680;-74
2022/11/02 08:00:40;;;;;;;13.23;12.23;;;10.10;99.90;;;;;;5111669;28;20263;-74
2022/11/02 08:03:08;;;;;;;13.03;11.87;;;10.20;99.90;;;;;;5111606;28;20647;-74
2022/11/02 08:05:37;;;;;;;13.27;12.07;;;10.20;99.90;;;;;;5096254;28;20173;-74
2022/11/02 08:08:04;;;;;;;20.27;18.93;;;10.30;99.90;;;;;;5090552;28;20597;-74
2022/11/02 08:10:31;;;;;;;28.00;26.27;;;10.30;99.90;;;;;;5089965;28;20181;-74
2022/11/02 08:12:58;;;;;;;33.17;30.93;;;10.40;99.90;;;;;;5092552;28;20639;-74
2022/11/02 08:15:24;;;;;;;28.63;26.67;;;10.40;99.90;;;;;;5094392;28;20218;-74
2022/11/02 08:18:04;;;;;;;24.20;22.63;;;10.50;99.90;;;;;;5093382;28;20589;-75
2022/11/02 08:20:32;;;;;;;20.40;18.87;;;10.50;99.90;;;;;;5100237;28;20271;-75
2022/11/02 08:22:58;;;;;;;24.87;22.60;;;10.60;99.90;;;;;;5090474;28;20641;-75
2022/11/02 08:25:24;;;;;;;21.27;19.23;;;10.70;99.90;;;;;;5091155;28;20260;-73
2022/11/02 08:27:50;;;;;;;17.30;16.10;;;10.80;99.90;;;;;;5090633;28;20318;-73
2022/11/02 08:30:16;;;;;;;13.97;12.97;;;10.80;99.90;;;;;;5089942;28;20181;-74
2022/11/02 08:32:41;;;;;;;14.30;13.17;;;10.90;99.90;;;;;;5090898;28;20295;-74
2022/11/02 08:35:07;;;;;;;16.03;14.83;;;11.20;99.90;;;;;;5091128;28;20184;-73
2022/11/02 08:37:33;;;;;;;16.87;15.37;;;11.30;99.90;;;;;;5090685;28;20216;-74
2022/11/02 08:39:59;;;;;;;19.10;17.83;;;11.60;99.90;;;;;;5091038;28;20192;-76
2022/11/02 08:42:24;;;;;;;24.20;22.67;;;11.90;99.90;;;;;;5090858;28;20203;-74
2022/11/02 08:44:50;;;;;;;16.50;15.50;;;12.30;99.90;;;;;;5089998;28;20259;-74
2022/11/02 08:47:17;;;;;;;26.50;24.80;;;12.50;99.90;;;;;;5090703;28;20180;-74
2022/11/02 08:49:43;;;;;;;13.13;11.90;;;12.70;99.90;;;;;;5090847;28;20187;-73
2022/11/02 08:52:09;;;;;;;37.47;35.33;;;13.10;99.90;;;;;;5089439;28;20221;-74
2022/11/02 08:54:35;;;;;;;50.87;47.43;;;13.40;99.90;;;;;;5091191;28;20212;-74
2022/11/02 08:57:01;;;;;;;24.60;23.07;;;13.60;99.90;;;;;;5089213;28;20201;-74
2022/11/02 08:59:26;;;;;;;19.53;17.80;;;13.80;99.90;;;;;;5090793;28;20173;-73
2022/11/02 09:01:52;;;;;;;16.17;15.00;;;14.10;99.90;;;;;;5101392;28;20545;-73
2022/11/02 09:04:18;;;;;;;21.00;19.00;;;14.20;99.90;;;;;;5107041;28;20172;-73
2022/11/02 09:06:43;;;;;;;12.60;11.20;;;14.30;99.90;;;;;;5109628;28;20281;-74
2022/11/02 09:09:09;;;;;;;11.43;10.30;;;14.20;99.90;;;;;;5110352;28;20173;-74
2022/11/02 09:11:35;;;;;;;11.40;10.30;;;14.10;99.90;;;;;;5109371;28;20176;-74
2022/11/02 09:14:01;;;;;;;13.40;11.57;;;14.20;99.90;;;;;;5109114;28;20196;-74
2022/11/02 09:16:27;;;;;;;15.97;14.73;;;14.20;99.90;;;;;;5109515;28;20169;-75
2022/11/02 09:18:53;;;;;;;16.07;14.53;;;14.20;99.90;;;;;;5109844;28;20188;-75
2022/11/02 09:21:18;;;;;;;18.80;15.73;;;14.20;99.90;;;;;;5110223;28;20176;-74
2022/11/02 09:23:47;;;;;;;17.13;16.10;;;14.10;99.90;;;;;;5110590;28;20702;-74
2022/11/02 09:26:13;;;;;;;17.00;15.50;;;14.00;99.90;;;;;;5109685;28;20185;-74
2022/11/02 09:28:39;;;;;;;17.33;16.23;;;14.00;99.90;;;;;;5099467;28;20189;-74
2022/11/02 09:31:05;;;;;;;15.93;14.83;;;14.10;99.90;;;;;;5107580;28;20192;-75
2022/11/02 09:33:33;;;;;;;16.90;15.40;;;14.10;99.90;;;;;;5113076;28;20802;-75
2022/11/02 09:36:02;;;;;;;11.63;10.63;;;14.30;99.90;;;;;;5112962;28;20676;-74
2022/11/02 09:38:28;;;;;;;13.97;9.60;;;14.40;99.90;;;;;;5113823;28;20212;-75
2022/11/02 09:41:13;;;;;;;10.40;8.80;;;14.60;99.90;;;;;;5114234;28;20641;-74
2022/11/02 09:43:47;;;;;;;8.77;6.83;;;14.80;99.90;;;;;;5113990;28;20866;-74
2022/11/02 09:46:22;;;;;;;9.97;6.20;;;15.20;99.90;;;;;;5110870;28;20180;-74
2022/11/02 09:49:01;;;;;;;11.80;9.53;;;15.50;99.90;;;;;;5093025;28;20703;-74
2022/11/02 09:51:41;;;;;;;11.47;8.20;;;15.70;99.90;;;;;;5094273;28;20193;-74
2022/11/02 09:54:34;;;;;;;10.57;9.57;;;15.90;99.90;;;;;;5096773;28;20716;-74
2022/11/02 09:57:05;;;;;;;11.30;10.30;;;15.80;99.90;;;;;;5105547;28;20232;-74
2022/11/02 09:59:31;;;;;;;10.83;9.73;;;15.80;99.90;;;;;;5102178;28;20184;-73
2022/11/02 10:02:35;;;;;;;11.77;10.70;;;15.90;99.90;;;;;;5091875;28;20276;-74
2022/11/02 10:05:37;;;;;;;19.33;17.90;;;16.00;99.90;;;;;;5030056;28;20281;-75
2022/11/02 10:08:18;;;;;;;17.47;16.07;;;16.10;99.90;;;;;;5093299;28;20204;-74
2022/11/02 10:11:00;;;;;;;17.57;16.23;;;16.10;99.90;;;;;;5092301;28;20185;-77
2022/11/02 10:13:57;;;;;;;20.30;18.47;;;16.00;99.90;;;;;;5093560;28;20204;-76
2022/11/02 10:16:36;;;;;;;15.03;13.63;;;16.00;99.90;;;;;;5093485;28;20189;-76
2022/11/02 10:19:14;;;;;;;9.13;8.40;;;16.10;99.90;;;;;;5093111;28;20766;-76
2022/11/02 10:21:43;;;;;;;7.63;6.93;;;16.20;99.90;;;;;;5093440;28;20195;-77
2022/11/02 10:24:23;;;;;;;8.83;5.90;;;16.40;99.90;;;;;;5093298;28;20205;-77
2022/11/02 10:26:49;;;;;;;6.63;5.97;;;16.60;99.90;;;;;;5091831;28;20656;-78
2022/11/02 10:29:16;;;;;;;13.40;9.33;;;16.60;99.90;;;;;;5093127;28;20181;-77
2022/11/02 10:31:42;;;;;;;13.63;12.47;;;16.70;99.90;;;;;;5095543;28;20599;-79
2022/11/02 10:34:22;;;;;;;21.87;20.17;;;16.70;99.90;;;;;;5094505;28;20208;-79
2022/11/02 10:37:00;;;;;;;33.00;31.03;;;16.80;99.90;;;;;;5093727;28;20181;-79
2022/11/02 10:39:42;;;;;;;28.33;26.47;;;16.80;99.90;;;;;;5109263;28;20176;-78
2022/11/02 10:42:16;;;;;;;28.93;27.13;;;16.70;99.90;;;;;;5110791;28;20197;-79
2022/11/02 10:45:02;;;;;;;26.40;24.77;;;16.50;99.90;;;;;;5113045;28;20267;-79
2022/11/02 10:47:40;;;;;;;13.03;12.20;;;16.30;99.90;;;;;;5115348;28;20226;-79
2022/11/02 10:50:27;;;;;;;14.50;13.67;;;16.10;99.90;;;;;;5115575;28;20274;-79
2022/11/02 10:52:53;;;;;;;14.20;13.13;;;16.10;99.90;;;;;;5123600;22;20306;-71
2022/11/02 10:55:22;;;;;;;20.50;18.77;;;16.30;99.90;;;;;;5071360;28;20315;-71
2022/11/02 10:57:49;;;;;;;20.07;18.40;;;16.30;99.90;;;;;;5071661;28;20330;-72
2022/11/02 11:00:33;;;;;;;24.53;22.87;;;16.30;99.90;;;;;;5072067;28;20254;-71
2022/11/02 11:03:14;;;;;;;23.87;22.03;;;16.50;99.90;;;;;;5072080;28;20197;-71
2022/11/02 11:05:48;;;;;;;20.30;19.00;;;16.60;99.90;;;;;;5072424;28;20177;-71
2022/11/02 11:08:41;;;;;;;23.70;22.10;;;16.60;99.90;;;;;;5071651;28;20226;-72
2022/11/02 11:11:21;;;;;;;28.63;26.93;;;16.40;99.90;;;;;;5077233;28;20186;-73
2022/11/02 11:13:56;;;;;;;22.47;21.07;;;16.20;99.90;;;;;;5093066;28;20217;-74
2022/11/02 11:16:43;;;;;;;26.93;25.23;;;16.20;99.90;;;;;;5089885;28;20189;-73
2022/11/02 11:19:22;;;;;;;27.50;25.83;;;16.30;99.90;;;;;;5070391;28;20181;-73
2022/11/02 11:21:49;;;;;;;20.27;19.00;;;16.20;99.90;;;;;;5070917;28;20564;-73
2022/11/02 11:24:32;;;;;;;20.23;18.53;;;16.10;99.90;;;;;;5070696;28;20197;-73
2022/11/02 11:27:02;;;;;;;22.30;20.93;;;15.80;99.90;;;;;;5070165;28;20564;-73
2022/11/02 11:29:34;;;;;;;19.80;18.03;;;15.70;99.90;;;;;;5070277;28;20177;-72
2022/11/02 11:32:01;;;;;;;13.37;11.90;;;15.50;99.90;;;;;;5071268;28;20242;-72
2022/11/02 11:34:33;;;;;;;7.53;6.73;;;15.40;99.90;;;;;;5070370;28;20307;-73
2022/11/02 11:37:10;;;;;;;13.13;12.10;;;15.40;99.90;;;;;;5071312;28;20205;-74
2022/11/02 11:39:38;;;;;;;12.90;11.30;;;15.60;99.90;;;;;;5071303;28;20182;-72
2022/11/02 11:42:14;;;;;;;15.33;13.93;;;15.80;99.90;;;;;;5071324;28;20180;-73
2022/11/02 11:44:52;;;;;;;16.30;15.20;;;16.00;99.90;;;;;;5073150;28;20276;-72
2022/11/02 11:47:28;;;;;;;17.60;15.93;;;16.10;99.90;;;;;;5072198;28;20177;-73
2022/11/02 11:49:56;;;;;;;21.07;19.47;;;16.30;99.90;;;;;;5070108;28;20189;-73
2022/11/02 11:52:32;;;;;;;20.57;18.97;;;16.80;99.90;;;;;;5069792;28;20185;-73
2022/11/02 11:55:27;;;;;;;23.57;22.20;;;17.40;99.90;;;;;;5070638;28;20283;-72
2022/11/02 11:58:18;;;;;;;14.57;13.40;;;17.90;99.90;;;;;;5069393;28;20581;-73
2022/11/02 12:00:44;;;;;;;14.00;10.50;;;17.80;99.90;;;;;;5069917;28;20178;-72
2022/11/02 12:03:12;;;;;;;10.73;9.83;;;17.60;99.90;;;;;;5071496;28;20574;-74
2022/11/02 12:06:03;;;;;;;26.77;24.60;;;18.20;99.90;;;;;;5088676;28;20658;-73
2022/11/02 12:08:51;;;;;;;26.93;25.23;;;18.20;99.90;;;;;;5071044;28;20574;-72
2022/11/02 12:11:51;;;;;;;33.23;31.30;;;18.50;99.90;;;;;;5076427;28;20605;-72
2022/11/02 12:14:32;;;;;;;25.43;23.73;;;19.70;99.90;;;;;;5074545;28;20273;-73
2022/11/02 12:17:16;;;;;;;17.20;15.47;;;20.30;99.90;;;;;;5056995;28;20205;-73
2022/11/02 12:19:57;;;;;;;17.40;16.07;;;20.70;99.90;;;;;;5055164;28;20170;-74
2022/11/02 12:22:49;;;;;;;13.17;11.47;;;20.80;99.90;;;;;;5084467;28;20287;-71
2022/11/02 12:25:27;;;;;;;14.67;7.97;;;22.20;99.90;;;;;;5070918;28;20185;-72
2022/11/02 12:28:37;;;;;;;9.67;8.70;;;22.30;99.90;;;;;;5070487;28;20181;-72
2022/11/02 12:31:18;;;;;;;14.30;12.97;;;21.70;99.90;;;;;;5047636;28;20240;-72
2022/11/02 12:33:56;;;;;;;14.63;13.23;;;22.00;99.90;;;;;;5040864;28;20206;-71
2022/11/02 12:36:36;;;;;;;13.47;11.90;;;21.00;99.90;;;;;;5055872;28;20233;-70
2022/11/02 12:39:20;;;;;;;15.57;14.27;;;20.10;99.90;;;;;;5070909;28;20246;-71
2022/11/02 12:42:22;;;;;;;16.80;15.10;;;19.70;99.90;;;;;;5070544;28;20186;-71
2022/11/02 12:45:22;;;;;;;14.03;12.87;;;21.40;99.90;;;;;;5070347;28;20649;-70
2022/11/02 12:48:00;;;;;;;13.95;12.70;;;24.60;99.90;;;;;;5070507;28;20185;-71
2022/11/02 12:50:33;;;;;;;6.03;5.28;;;26.40;95.10;;;;;;5069766;28;20205;-72
2022/11/02 12:53:14;;;;;;;6.63;3.63;;;27.60;90.20;;;;;;5079262;28;20208;-73
2022/11/02 12:55:47;;;;;;;9.25;4.78;;;26.90;90.70;;;;;;5078984;28;20590;-72
2022/11/02 12:58:22;;;;;;;7.63;5.68;;;26.70;90.10;;;;;;5070189;28;20217;-71
2022/11/02 13:00:54;;;;;;;6.65;4.50;;;25.10;90.80;;;;;;5070359;28;20173;-71
2022/11/02 13:03:54;;;;;;;7.03;5.60;;;24.10;92.70;;;;;;5070511;28;20198;-72
2022/11/02 13:06:42;;;;;;;5.40;4.35;;;23.90;93.50;;;;;;5071099;28;20613;-71
2022/11/02 13:09:35;;;;;;;7.38;5.07;;;23.60;94.10;;;;;;5072871;28;20595;-71
2022/11/02 13:12:13;;;;;;;8.45;4.80;;;24.50;93.60;;;;;;5054030;28;20186;-71
2022/11/02 13:14:42;;;;;;;10.67;5.33;;;25.10;92.40;;;;;;5054004;28;20189;-72
2022/11/02 13:17:27;;;;;;;6.40;5.80;;;25.00;92.30;;;;;;5054182;28;20202;-71